Antananarivo, Madagascar
Current Conditions -  °F | °C
As of 9:00 PM on Thursday 30 Oct 2014 (Local Time) from FMMI Reporting Station
Broken Clouds Broken Clouds  
Wind Chill: 63°   Ceiling: 2000
Heat Index: 63°   Visibility: 6mi
Dew Point: 63°   Wind: 9mph
Humidity: 100%   Direction: 80°E
Pressure: 30.24"   Gusts: NA
Location:  18.89°S, 47.51°E
Report Text: FMMI 301800Z 08008KT 9999 FEW010 BKN020 17/17 Q1024 NOSIG
Loading
Personal Weather Stations






























Interactive Weather Map
Tropical Storm Tracking
New forecast layout! Learn more

10-Day Weather Forecast

Advertisements
Track Severe Weather on mobile